createdAt,value
2022-08-18T00:00:20.459Z,87.30
2022-08-18T00:01:17.570Z,87.10
2022-08-18T00:02:18.280Z,86.90
2022-08-18T00:03:53.371Z,86.90
2022-08-18T00:04:28.729Z,86.60
2022-08-18T00:05:19.879Z,86.40
2022-08-18T00:06:14.632Z,86.60
2022-08-18T00:07:17.889Z,86.90
2022-08-18T00:08:16.099Z,86.80
2022-08-18T00:09:14.571Z,86.40
2022-08-18T00:10:17.872Z,86.00
2022-08-18T00:11:12.814Z,86.00
2022-08-18T00:12:14.037Z,86.20
2022-08-18T00:13:14.736Z,85.90
2022-08-18T00:14:21.641Z,85.50
2022-08-18T00:15:15.298Z,85.50
2022-08-18T00:16:13.194Z,85.30
2022-08-18T00:17:12.963Z,85.50
2022-08-18T00:18:18.507Z,85.90
2022-08-18T00:19:13.717Z,86.20
2022-08-18T00:20:18.560Z,86.60
2022-08-18T00:21:22.191Z,86.70
2022-08-18T00:22:15.636Z,86.40
2022-08-18T00:23:16.204Z,86.20
2022-08-18T00:24:13.111Z,86.30
2022-08-18T00:25:14.644Z,86.30
2022-08-18T00:26:13.626Z,86.10
2022-08-18T00:27:13.551Z,86.20
2022-08-18T00:28:15.603Z,86.70
2022-08-18T00:29:13.653Z,86.90
2022-08-18T00:30:15.401Z,86.60
2022-08-18T00:31:15.978Z,86.50
2022-08-18T00:32:16.887Z,86.50
2022-08-18T00:33:18.407Z,86.30
2022-08-18T00:34:14.540Z,86.10
2022-08-18T00:35:16.279Z,86.40
2022-08-18T00:36:13.159Z,86.50
2022-08-18T00:37:14.737Z,86.80
2022-08-18T00:38:24.231Z,87.20
2022-08-18T00:39:13.306Z,87.60
2022-08-18T00:40:14.844Z,87.40
2022-08-18T00:41:14.370Z,87.30
2022-08-18T00:42:14.583Z,86.90
2022-08-18T00:43:15.035Z,87.10
2022-08-18T00:44:14.820Z,87.20
2022-08-18T00:45:13.913Z,87.40
2022-08-18T00:46:15.249Z,87.60
2022-08-18T00:47:17.001Z,87.20
2022-08-18T00:48:15.194Z,87.20
2022-08-18T00:49:16.302Z,87.10
2022-08-18T00:50:15.175Z,86.80
2022-08-18T00:51:18.615Z,86.80
2022-08-18T00:52:13.522Z,86.70
2022-08-18T00:53:16.673Z,86.90
2022-08-18T00:54:13.602Z,87.30
2022-08-18T00:55:13.465Z,87.50
2022-08-18T00:56:17.096Z,87.50
2022-08-18T00:57:13.134Z,87.70
2022-08-18T00:58:14.795Z,87.90
2022-08-18T00:59:13.775Z,88.10
2022-08-18T01:00:16.802Z,88.40
2022-08-18T01:01:13.815Z,88.60
2022-08-18T01:02:13.874Z,88.30
2022-08-18T01:03:24.922Z,88.00
2022-08-18T01:04:21.511Z,88.20
2022-08-18T01:05:13.458Z,87.90
2022-08-18T01:06:13.413Z,87.80
2022-08-18T01:07:16.181Z,87.70
2022-08-18T01:08:28.620Z,87.80
2022-08-18T01:09:16.208Z,87.90
2022-08-18T01:10:16.284Z,88.10
2022-08-18T01:11:16.328Z,88.40
2022-08-18T01:12:45.646Z,88.20
2022-08-18T01:13:13.474Z,87.70
2022-08-18T01:14:13.711Z,87.20
2022-08-18T01:15:28.304Z,87.30
2022-08-18T01:16:14.989Z,87.40
2022-08-18T01:17:12.795Z,87.70
2022-08-18T01:18:16.991Z,87.30
2022-08-18T01:19:14.621Z,87.80
2022-08-18T01:20:13.544Z,87.70
2022-08-18T01:21:13.420Z,87.60
2022-08-18T01:22:14.761Z,87.40
2022-08-18T01:23:14.111Z,87.30
2022-08-18T01:24:21.239Z,87.60
2022-08-18T01:25:17.053Z,88.10
2022-08-18T01:26:16.338Z,88.40
2022-08-18T01:27:14.340Z,88.30
2022-08-18T01:28:13.191Z,88.30
2022-08-18T01:29:19.245Z,88.60
2022-08-18T01:30:15.078Z,89.10
2022-08-18T01:31:12.924Z,89.40
2022-08-18T01:32:12.957Z,89.60
2022-08-18T01:33:16.155Z,90.00
2022-08-18T01:34:14.867Z,90.20
2022-08-18T01:35:15.534Z,90.10
2022-08-18T01:36:16.425Z,90.00
2022-08-18T01:37:13.295Z,90.00
2022-08-18T01:38:14.626Z,89.90
2022-08-18T01:39:16.701Z,89.90
2022-08-18T01:41:23.720Z,89.90
2022-08-18T01:41:29.003Z,90.00
2022-08-18T01:42:14.177Z,90.20
2022-08-18T01:43:13.115Z,90.10
2022-08-18T01:44:17.539Z,90.50
2022-08-18T01:45:15.853Z,90.50
2022-08-18T01:46:16.753Z,91.10
2022-08-18T01:47:16.354Z,91.10
2022-08-18T01:48:14.843Z,91.10
2022-08-18T01:49:20.381Z,91.60
2022-08-18T01:50:13.469Z,91.60
2022-08-18T01:51:13.486Z,91.70
2022-08-18T01:52:13.495Z,91.50
2022-08-18T01:53:13.399Z,91.40
2022-08-18T01:54:16.219Z,91.60
2022-08-18T01:55:14.755Z,91.70
2022-08-18T01:56:12.765Z,91.80
2022-08-18T01:57:16.414Z,91.90
2022-08-18T01:58:15.319Z,92.00
2022-08-18T01:59:14.173Z,91.70
2022-08-18T02:00:16.602Z,91.30
2022-08-18T02:01:13.688Z,90.80
2022-08-18T02:02:15.859Z,91.00
2022-08-18T02:03:15.134Z,91.10
2022-08-18T02:04:33.963Z,91.50
2022-08-18T02:05:13.377Z,91.30
2022-08-18T02:06:14.696Z,90.70
2022-08-18T02:07:12.934Z,91.00
2022-08-18T02:08:12.783Z,91.30
2022-08-18T02:09:13.598Z,91.10
2022-08-18T02:10:16.636Z,90.90
2022-08-18T02:11:13.657Z,91.00
2022-08-18T02:12:13.505Z,91.50
2022-08-18T02:13:15.278Z,91.80
2022-08-18T02:14:14.648Z,91.70
2022-08-18T02:15:16.614Z,91.90
2022-08-18T02:16:14.975Z,91.90
2022-08-18T02:17:18.689Z,91.70
2022-08-18T02:18:13.805Z,91.70
2022-08-18T02:19:13.033Z,91.50
2022-08-18T02:20:14.573Z,91.60
2022-08-18T02:21:14.938Z,91.80
2022-08-18T02:22:14.587Z,91.80
2022-08-18T02:23:13.492Z,91.80
2022-08-18T02:24:15.013Z,92.00
2022-08-18T02:25:14.360Z,92.10
2022-08-18T02:26:16.402Z,92.20
2022-08-18T02:27:13.432Z,92.80
2022-08-18T02:28:13.395Z,93.30
2022-08-18T02:29:14.091Z,93.50
2022-08-18T02:30:13.288Z,94.00
2022-08-18T02:31:13.392Z,93.90
2022-08-18T02:32:16.650Z,93.90
2022-08-18T02:33:14.928Z,93.90
2022-08-18T02:34:19.782Z,93.90
2022-08-18T02:35:18.677Z,93.70
2022-08-18T02:36:13.867Z,93.80
2022-08-18T02:37:15.937Z,94.10
2022-08-18T02:38:12.965Z,94.30
2022-08-18T02:39:13.320Z,94.50
2022-08-18T02:40:15.125Z,94.50
2022-08-18T02:41:15.136Z,94.60
2022-08-18T02:42:13.111Z,94.80
2022-08-18T02:43:12.895Z,94.60
2022-08-18T02:44:12.750Z,95.20
2022-08-18T02:45:15.264Z,94.70
2022-08-18T02:46:13.468Z,94.10
2022-08-18T02:47:16.162Z,93.70
2022-08-18T02:48:13.140Z,93.60
2022-08-18T02:49:13.114Z,93.30
2022-08-18T02:50:12.994Z,93.30
2022-08-18T02:51:17.415Z,93.00
2022-08-18T02:52:13.206Z,93.00
2022-08-18T02:53:15.799Z,92.90
2022-08-18T02:54:15.347Z,93.70
2022-08-18T02:55:15.831Z,93.30
2022-08-18T02:56:13.613Z,93.40
2022-08-18T02:57:13.546Z,93.30
2022-08-18T02:58:13.415Z,93.40
2022-08-18T02:59:13.572Z,93.50
2022-08-18T03:00:14.636Z,93.10
2022-08-18T03:01:15.544Z,94.00
2022-08-18T03:02:13.646Z,94.50
2022-08-18T03:03:13.743Z,94.90
2022-08-18T03:04:15.450Z,95.50
2022-08-18T03:05:17.884Z,95.80
2022-08-18T03:06:15.306Z,95.30
2022-08-18T03:07:13.121Z,95.20
2022-08-18T03:08:13.170Z,95.10
2022-08-18T03:09:14.797Z,95.40
2022-08-18T03:10:31.985Z,95.50
2022-08-18T03:11:14.221Z,95.00
2022-08-18T03:12:14.873Z,94.70
2022-08-18T03:13:19.761Z,94.60
2022-08-18T03:14:15.605Z,95.20
2022-08-18T03:15:16.545Z,95.00
2022-08-18T03:16:14.911Z,94.80
2022-08-18T03:17:16.100Z,95.20
2022-08-18T03:18:14.475Z,94.70
2022-08-18T03:19:16.048Z,94.80
2022-08-18T03:20:13.125Z,95.00
2022-08-18T03:21:13.714Z,94.70
2022-08-18T03:22:27.461Z,94.80
2022-08-18T03:23:15.199Z,95.20
2022-08-18T03:24:19.329Z,95.50
2022-08-18T03:25:14.695Z,95.60
2022-08-18T03:26:15.025Z,95.40
2022-08-18T03:27:13.421Z,95.70
2022-08-18T03:28:18.505Z,96.20
2022-08-18T03:29:14.253Z,96.00
2022-08-18T03:30:13.180Z,95.90
2022-08-18T03:31:14.897Z,96.00
2022-08-18T03:32:14.856Z,96.20
2022-08-18T03:33:15.579Z,96.20
2022-08-18T03:34:18.565Z,96.40
2022-08-18T03:35:13.472Z,96.10
2022-08-18T03:36:16.729Z,96.10
2022-08-18T03:37:15.608Z,96.30
2022-08-18T03:38:13.857Z,96.30
2022-08-18T03:39:16.663Z,95.50
2022-08-18T03:40:16.532Z,95.60
2022-08-18T03:41:13.692Z,95.80
2022-08-18T03:42:14.030Z,96.10
2022-08-18T03:43:49.877Z,95.70
2022-08-18T03:44:16.768Z,96.00
2022-08-18T03:45:17.830Z,95.50
2022-08-18T03:46:16.122Z,95.50
2022-08-18T03:47:14.698Z,95.90
2022-08-18T03:48:15.505Z,95.50
2022-08-18T03:49:16.665Z,95.60
2022-08-18T03:50:14.184Z,95.30
2022-08-18T03:51:13.197Z,95.60
2022-08-18T03:52:16.247Z,95.40
2022-08-18T03:53:16.025Z,94.60
2022-08-18T03:54:13.126Z,94.20
2022-08-18T03:55:18.071Z,94.40
2022-08-18T03:56:17.590Z,94.70
2022-08-18T03:57:15.883Z,94.90
2022-08-18T03:58:15.901Z,94.60
2022-08-18T03:59:16.127Z,94.70
2022-08-18T04:00:14.951Z,95.30
2022-08-18T04:01:15.906Z,95.40
2022-08-18T04:02:16.578Z,95.10
2022-08-18T04:03:13.436Z,95.50
2022-08-18T04:04:15.128Z,96.10
2022-08-18T04:05:14.582Z,96.30
2022-08-18T04:06:12.904Z,96.10
2022-08-18T04:07:14.700Z,95.80
2022-08-18T04:08:16.682Z,95.30
2022-08-18T04:09:51.745Z,95.40
2022-08-18T04:10:19.496Z,95.40
2022-08-18T04:11:13.665Z,95.20
2022-08-18T04:12:16.673Z,95.00
2022-08-18T04:13:15.455Z,94.80
2022-08-18T04:14:13.444Z,94.60
2022-08-18T04:15:13.323Z,94.30
2022-08-18T04:16:15.182Z,93.80
2022-08-18T04:17:13.415Z,94.50
2022-08-18T04:18:15.282Z,94.50
2022-08-18T04:19:26.264Z,94.50
2022-08-18T04:20:13.494Z,94.80
2022-08-18T04:21:15.155Z,94.80
2022-08-18T04:22:17.178Z,94.60
2022-08-18T04:23:15.512Z,94.70
2022-08-18T04:24:15.260Z,94.60
2022-08-18T04:25:15.084Z,94.50
2022-08-18T04:26:19.447Z,94.30
2022-08-18T04:27:20.533Z,94.00
2022-08-18T04:28:13.541Z,94.10
2022-08-18T04:29:15.877Z,94.20
2022-08-18T04:30:15.293Z,93.70
2022-08-18T04:31:13.301Z,93.20
2022-08-18T04:32:16.389Z,93.00
2022-08-18T04:33:15.598Z,92.80
2022-08-18T04:34:13.568Z,93.00
2022-08-18T04:35:14.840Z,94.20
2022-08-18T04:36:21.214Z,93.90
2022-08-18T04:37:17.488Z,94.30
2022-08-18T04:38:13.881Z,94.30
2022-08-18T04:39:12.828Z,94.30
2022-08-18T04:40:14.262Z,93.80
2022-08-18T04:41:16.083Z,93.70
2022-08-18T04:42:16.457Z,93.30
2022-08-18T04:43:13.626Z,93.10
2022-08-18T04:44:13.556Z,92.90
2022-08-18T04:45:16.520Z,93.00
2022-08-18T04:46:13.651Z,93.00
2022-08-18T04:47:13.790Z,92.60
2022-08-18T04:48:13.880Z,92.40
2022-08-18T04:49:13.384Z,93.00
2022-08-18T04:50:13.223Z,92.80
2022-08-18T04:52:36.483Z,93.60
2022-08-18T04:52:36.746Z,93.30
2022-08-18T04:53:13.092Z,93.50
2022-08-18T04:54:13.097Z,93.30
2022-08-18T04:55:13.170Z,93.30
2022-08-18T04:56:13.428Z,93.00
2022-08-18T04:57:13.295Z,92.60
2022-08-18T04:58:13.245Z,92.50
2022-08-18T04:59:13.520Z,92.20
2022-08-18T05:00:13.525Z,92.00
2022-08-18T05:01:13.789Z,91.70
2022-08-18T05:02:14.877Z,92.80
2022-08-18T05:03:14.721Z,93.10
2022-08-18T05:04:16.286Z,92.80
2022-08-18T05:05:16.447Z,92.80
2022-08-18T05:06:20.265Z,92.60
2022-08-18T05:07:16.155Z,92.90
2022-08-18T05:08:15.112Z,92.80
2022-08-18T05:09:16.757Z,92.60
2022-08-18T05:10:12.736Z,92.30
2022-08-18T05:11:15.209Z,92.70
2022-08-18T05:12:12.996Z,92.40
2022-08-18T05:13:13.365Z,92.30
2022-08-18T05:14:14.002Z,92.10
2022-08-18T05:15:13.577Z,92.50
2022-08-18T05:16:27.179Z,93.40
2022-08-18T05:17:12.711Z,93.20
2022-08-18T05:18:13.941Z,93.60
2022-08-18T05:19:14.175Z,93.80
2022-08-18T05:20:13.169Z,93.60
2022-08-18T05:21:14.866Z,93.50
2022-08-18T05:22:13.760Z,93.50
2022-08-18T05:23:15.223Z,93.50
2022-08-18T05:24:13.282Z,93.40
2022-08-18T05:25:14.910Z,93.20
2022-08-18T05:26:12.739Z,92.60
2022-08-18T05:27:18.781Z,92.30
2022-08-18T05:28:13.958Z,92.30
2022-08-18T05:29:18.458Z,92.60
2022-08-18T05:30:15.114Z,92.70
2022-08-18T05:31:13.898Z,92.30
2022-08-18T05:32:30.532Z,93.00
2022-08-18T05:33:17.620Z,92.50
2022-08-18T05:34:15.116Z,92.40
2022-08-18T05:35:12.964Z,92.60
2022-08-18T05:36:18.028Z,93.40
2022-08-18T05:37:14.702Z,93.00
2022-08-18T05:38:13.668Z,93.40
2022-08-18T05:39:13.881Z,93.80
2022-08-18T05:40:15.726Z,93.30
2022-08-18T05:41:14.496Z,92.70
2022-08-18T05:42:14.987Z,92.70
2022-08-18T05:43:16.406Z,92.20
2022-08-18T05:44:15.478Z,92.30
2022-08-18T05:45:13.954Z,92.10
2022-08-18T05:46:13.028Z,92.10
2022-08-18T05:47:17.832Z,92.60
2022-08-18T05:48:13.832Z,92.30
2022-08-18T05:49:13.771Z,91.50
2022-08-18T05:50:13.900Z,91.10
2022-08-18T05:51:12.763Z,91.00
2022-08-18T05:52:17.771Z,91.40
2022-08-18T05:53:14.480Z,91.50
2022-08-18T05:54:14.443Z,91.10
2022-08-18T05:55:15.281Z,90.90
2022-08-18T05:56:13.687Z,90.50
2022-08-18T05:57:16.767Z,90.50
2022-08-18T05:58:13.692Z,91.30
2022-08-18T05:59:13.928Z,91.50
2022-08-18T06:00:12.797Z,91.50
2022-08-18T06:01:13.665Z,91.20
2022-08-18T06:02:17.829Z,91.30
2022-08-18T06:03:26.523Z,90.90
2022-08-18T06:04:14.774Z,90.50
2022-08-18T06:05:16.710Z,90.30
2022-08-18T06:06:14.772Z,90.80
2022-08-18T06:07:16.714Z,90.90
2022-08-18T06:08:18.790Z,91.50
2022-08-18T06:09:13.764Z,91.90
2022-08-18T06:10:13.709Z,91.50
2022-08-18T06:11:17.254Z,92.10
2022-08-18T06:12:13.517Z,92.20
2022-08-18T06:13:13.352Z,92.30
2022-08-18T06:14:13.508Z,91.80
2022-08-18T06:15:13.615Z,91.30
2022-08-18T06:16:16.135Z,90.70
2022-08-18T06:17:14.814Z,91.10
2022-08-18T06:18:17.420Z,90.30
2022-08-18T06:19:14.739Z,89.90
2022-08-18T06:20:14.473Z,89.70
2022-08-18T06:21:15.891Z,89.30
2022-08-18T06:22:13.830Z,89.20
2022-08-18T06:23:16.606Z,89.30
2022-08-18T06:24:16.760Z,88.40
2022-08-18T06:25:14.897Z,88.30
2022-08-18T06:26:12.725Z,88.30
2022-08-18T06:27:15.001Z,88.30
2022-08-18T06:28:13.026Z,87.70
2022-08-18T06:29:13.312Z,87.70
2022-08-18T06:30:14.880Z,87.10
2022-08-18T06:31:17.520Z,87.20
2022-08-18T06:32:13.401Z,86.90
2022-08-18T06:33:13.962Z,86.60
2022-08-18T06:34:15.407Z,86.90
2022-08-18T06:35:16.516Z,86.90
2022-08-18T06:36:13.760Z,88.10
2022-08-18T06:37:13.048Z,87.90
2022-08-18T06:38:15.558Z,87.20
2022-08-18T06:39:15.220Z,87.00
2022-08-18T06:40:17.902Z,88.90
2022-08-18T06:41:41.465Z,88.30
2022-08-18T06:42:13.381Z,87.90
2022-08-18T06:43:14.916Z,88.00
2022-08-18T06:44:14.710Z,87.50
2022-08-18T06:45:14.519Z,87.10
2022-08-18T06:46:17.534Z,88.90
2022-08-18T06:47:13.854Z,89.20
2022-08-18T06:48:16.917Z,88.80
2022-08-18T06:49:14.832Z,88.60
2022-08-18T06:50:15.724Z,88.30
2022-08-18T06:51:16.722Z,88.30
2022-08-18T06:52:18.030Z,87.90
2022-08-18T06:53:27.349Z,87.60
2022-08-18T06:54:20.256Z,88.20
2022-08-18T06:55:16.633Z,87.30
2022-08-18T06:56:25.866Z,87.10
2022-08-18T06:57:16.958Z,87.40
2022-08-18T06:58:16.016Z,86.70
2022-08-18T06:59:12.937Z,86.60
2022-08-18T07:00:16.225Z,86.70
2022-08-18T07:01:14.070Z,87.20
2022-08-18T07:02:14.888Z,86.80
2022-08-18T07:03:14.213Z,86.70
2022-08-18T07:04:17.303Z,86.10
2022-08-18T07:05:18.351Z,85.90
2022-08-18T07:06:15.110Z,85.40
2022-08-18T07:07:13.748Z,85.70
2022-08-18T07:08:13.741Z,85.20
2022-08-18T07:09:16.137Z,86.50
2022-08-18T07:10:13.017Z,85.60
2022-08-18T07:11:14.624Z,85.50
2022-08-18T07:12:17.916Z,85.00
2022-08-18T07:13:14.803Z,86.30
2022-08-18T07:14:16.775Z,86.50
2022-08-18T07:15:15.111Z,85.50
2022-08-18T07:16:23.154Z,86.20
2022-08-18T07:17:19.217Z,87.50
2022-08-18T07:18:18.578Z,88.00
2022-08-18T07:19:19.052Z,86.80
2022-08-18T07:20:15.926Z,86.30
2022-08-18T07:21:13.155Z,86.00
2022-08-18T07:22:13.292Z,86.30
2022-08-18T07:23:15.265Z,87.50
2022-08-18T07:24:24.848Z,87.60
2022-08-18T07:25:17.966Z,86.80
2022-08-18T07:26:16.002Z,86.20
2022-08-18T07:27:13.954Z,86.60
2022-08-18T07:28:18.213Z,86.90
2022-08-18T07:29:16.428Z,86.60
2022-08-18T07:30:16.069Z,86.90
2022-08-18T07:31:17.593Z,86.60
2022-08-18T07:32:21.344Z,85.90
2022-08-18T07:33:15.394Z,86.00
2022-08-18T07:34:13.768Z,86.20
2022-08-18T07:35:16.893Z,85.40
2022-08-18T07:36:14.501Z,84.90
2022-08-18T07:37:16.150Z,84.60
2022-08-18T07:38:39.046Z,85.20
2022-08-18T07:39:13.844Z,85.30
2022-08-18T07:40:15.439Z,85.00
2022-08-18T07:41:17.322Z,85.90
2022-08-18T07:42:16.550Z,85.90
2022-08-18T07:43:17.919Z,85.70
2022-08-18T07:44:15.752Z,85.50
2022-08-18T07:45:18.669Z,84.90
2022-08-18T07:46:12.872Z,83.90
2022-08-18T07:47:13.720Z,83.90
2022-08-18T07:48:37.702Z,85.20
2022-08-18T07:49:21.830Z,85.60
2022-08-18T07:50:26.868Z,85.80
2022-08-18T07:51:16.592Z,85.10
2022-08-18T07:52:36.518Z,85.90
2022-08-18T07:53:12.814Z,85.50
2022-08-18T07:54:47.103Z,86.30
2022-08-18T07:55:17.000Z,86.50
2022-08-18T07:56:14.275Z,86.60
2022-08-18T07:57:20.160Z,87.30
2022-08-18T07:58:15.095Z,86.20
2022-08-18T07:59:15.283Z,86.20
2022-08-18T08:00:17.396Z,86.70
2022-08-18T08:01:14.695Z,86.50
2022-08-18T08:02:18.969Z,86.50
2022-08-18T08:03:13.086Z,86.10
2022-08-18T08:04:25.735Z,86.10
2022-08-18T08:05:13.341Z,85.70
2022-08-18T08:06:13.161Z,86.50
2022-08-18T08:07:24.786Z,86.90
2022-08-18T08:08:14.731Z,86.70
2022-08-18T08:09:16.258Z,86.70
2022-08-18T08:10:14.658Z,86.60
2022-08-18T08:11:16.048Z,85.80
2022-08-18T08:12:16.268Z,86.50
2022-08-18T08:13:26.027Z,86.40
2022-08-18T08:14:22.906Z,86.30
2022-08-18T08:15:18.423Z,86.50
2022-08-18T08:16:16.893Z,86.70
2022-08-18T08:17:17.413Z,86.90
2022-08-18T08:18:16.410Z,86.00
2022-08-18T08:19:13.508Z,86.10
2022-08-18T08:20:18.216Z,86.20
2022-08-18T08:21:16.471Z,85.80
2022-08-18T08:22:13.686Z,85.90
2022-08-18T08:23:23.160Z,85.70
2022-08-18T08:24:13.072Z,85.60
2022-08-18T08:25:42.826Z,85.10
2022-08-18T08:26:17.093Z,85.40
2022-08-18T08:27:16.367Z,84.50
2022-08-18T08:28:16.190Z,84.10
2022-08-18T08:29:13.184Z,84.10
2022-08-18T08:30:16.459Z,84.20
2022-08-18T08:31:36.222Z,84.60
2022-08-18T08:32:16.013Z,84.10
2022-08-18T08:33:16.425Z,83.50
2022-08-18T08:34:16.519Z,83.30
2022-08-18T08:35:48.939Z,83.00
2022-08-18T08:36:14.685Z,84.10
2022-08-18T08:37:19.371Z,84.10
2022-08-18T08:38:39.578Z,84.10
2022-08-18T08:39:16.279Z,85.00
2022-08-18T08:40:13.328Z,85.00
2022-08-18T08:41:13.377Z,84.50
2022-08-18T08:42:30.625Z,84.70
2022-08-18T08:43:14.619Z,85.00
2022-08-18T08:44:21.975Z,85.00
2022-08-18T08:45:17.240Z,84.30
2022-08-18T08:46:17.757Z,83.80
2022-08-18T08:47:15.260Z,84.40
2022-08-18T08:48:14.558Z,84.70
2022-08-18T08:49:14.623Z,84.80
2022-08-18T08:50:13.752Z,84.50
2022-08-18T08:51:17.230Z,84.00
2022-08-18T08:52:18.747Z,83.10
2022-08-18T08:53:13.060Z,82.90
2022-08-18T08:54:14.491Z,82.10
2022-08-18T08:55:16.377Z,81.70
2022-08-18T08:56:13.558Z,81.40
2022-08-18T08:57:20.192Z,81.40
2022-08-18T08:58:17.490Z,81.30
2022-08-18T08:59:19.311Z,80.60
2022-08-18T09:00:18.300Z,81.80
2022-08-18T09:01:14.131Z,81.70
2022-08-18T09:02:37.899Z,81.60
2022-08-18T09:03:16.931Z,81.10
2022-08-18T09:04:15.961Z,80.90
2022-08-18T09:05:14.413Z,80.90
2022-08-18T09:06:13.269Z,79.50
2022-08-18T09:07:19.182Z,79.00
2022-08-18T09:08:18.503Z,78.30
2022-08-18T09:09:18.901Z,77.80
2022-08-18T09:10:12.978Z,78.50
2022-08-18T09:11:12.928Z,78.60
2022-08-18T09:12:17.490Z,78.30
2022-08-18T09:13:18.717Z,78.50
2022-08-18T09:14:15.610Z,78.40
2022-08-18T09:15:16.749Z,78.40
2022-08-18T09:16:16.206Z,78.30
2022-08-18T09:17:16.316Z,78.40
2022-08-18T09:18:18.683Z,77.30
2022-08-18T09:19:16.485Z,76.60
2022-08-18T09:20:16.848Z,76.90
2022-08-18T09:21:16.604Z,77.00
2022-08-18T09:22:19.441Z,76.70
2022-08-18T09:23:15.447Z,76.60
2022-08-18T09:24:15.695Z,76.50
2022-08-18T09:25:15.231Z,76.60
2022-08-18T09:26:14.923Z,75.00
2022-08-18T09:27:19.160Z,76.10
2022-08-18T09:28:14.768Z,75.50
2022-08-18T09:29:17.500Z,74.20
2022-08-18T09:30:15.937Z,73.80
2022-08-18T09:31:19.359Z,73.40
2022-08-18T09:32:18.556Z,73.20
2022-08-18T09:33:19.831Z,71.90
2022-08-18T09:34:16.734Z,71.10
2022-08-18T09:35:17.628Z,70.70
2022-08-18T09:36:19.975Z,69.90
2022-08-18T09:37:19.206Z,69.50
2022-08-18T09:38:20.734Z,70.80
2022-08-18T09:39:16.042Z,70.40
2022-08-18T09:40:16.900Z,69.90
2022-08-18T09:41:18.312Z,70.60
2022-08-18T09:42:16.428Z,71.40
2022-08-18T09:43:20.269Z,71.90
2022-08-18T09:44:21.275Z,71.60
2022-08-18T09:45:16.698Z,70.90
2022-08-18T09:46:18.487Z,70.40
2022-08-18T09:47:18.342Z,71.70
2022-08-18T09:48:25.182Z,72.20
2022-08-18T09:49:17.827Z,70.80
2022-08-18T09:50:26.532Z,69.80
2022-08-18T09:51:19.885Z,69.80
2022-08-18T09:52:18.282Z,70.10
2022-08-18T09:53:19.770Z,70.20
2022-08-18T09:54:21.442Z,68.80
2022-08-18T09:55:18.275Z,68.70
2022-08-18T09:56:19.589Z,68.30
2022-08-18T09:57:20.823Z,70.10
2022-08-18T09:59:15.436Z,70.30
2022-08-18T10:00:17.878Z,70.60
2022-08-18T10:01:15.506Z,70.00
2022-08-18T10:02:22.736Z,70.20
2022-08-18T10:03:25.783Z,68.90
2022-08-18T10:04:21.719Z,67.80
2022-08-18T10:05:18.379Z,68.60
2022-08-18T10:06:18.028Z,68.00
2022-08-18T10:07:18.503Z,67.00
2022-08-18T10:08:21.379Z,66.60
2022-08-18T10:09:27.308Z,66.00
2022-08-18T10:11:20.634Z,68.00
2022-08-18T10:12:16.235Z,67.10
2022-08-18T10:13:18.756Z,66.10
2022-08-18T10:14:15.883Z,66.20
2022-08-18T10:15:26.956Z,66.90
2022-08-18T10:16:17.368Z,66.50
2022-08-18T10:17:24.076Z,66.40
2022-08-18T10:18:18.895Z,67.10
2022-08-18T10:19:18.735Z,66.30
2022-08-18T10:20:25.882Z,65.30
2022-08-18T10:22:17.264Z,65.90
2022-08-18T10:23:17.730Z,65.60
2022-08-18T10:24:35.958Z,66.70
2022-08-18T10:25:22.687Z,67.10
2022-08-18T10:26:17.357Z,66.30
2022-08-18T10:27:17.434Z,64.70
2022-08-18T10:28:17.385Z,64.90
2022-08-18T10:29:15.997Z,65.40
2022-08-18T10:30:19.363Z,65.40
2022-08-18T10:31:17.486Z,63.30
2022-08-18T10:32:17.639Z,63.00
2022-08-18T10:33:18.613Z,64.60
2022-08-18T10:34:21.915Z,63.70
2022-08-18T10:35:17.504Z,62.50
2022-08-18T10:36:18.362Z,62.00
2022-08-18T10:37:19.534Z,62.70
2022-08-18T10:38:18.520Z,63.80
2022-08-18T10:39:17.778Z,63.30
2022-08-18T10:40:21.292Z,62.00
2022-08-18T10:41:19.482Z,61.60
2022-08-18T10:42:18.303Z,63.50
2022-08-18T10:43:45.359Z,62.20
2022-08-18T10:44:28.603Z,61.90
2022-08-18T10:45:24.566Z,61.80
2022-08-18T10:46:25.358Z,61.50
2022-08-18T10:47:18.186Z,60.30
2022-08-18T10:48:17.324Z,60.60
2022-08-18T10:49:18.375Z,61.40
2022-08-18T10:50:19.322Z,61.80
2022-08-18T10:51:21.593Z,62.50
2022-08-18T10:52:20.713Z,63.30
2022-08-18T10:53:39.606Z,62.00
2022-08-18T10:54:19.126Z,61.20
2022-08-18T10:55:19.048Z,60.50
2022-08-18T10:56:22.573Z,60.70
2022-08-18T10:57:18.279Z,60.20
2022-08-18T10:58:18.602Z,59.60
2022-08-18T10:59:19.950Z,58.50
2022-08-18T11:00:17.020Z,59.00
2022-08-18T11:01:18.626Z,58.50
2022-08-18T11:02:15.099Z,59.20
2022-08-18T11:03:50.544Z,59.60
2022-08-18T11:04:33.391Z,60.00
2022-08-18T11:05:19.473Z,59.30
2022-08-18T11:06:21.523Z,59.50
2022-08-18T11:07:18.331Z,59.90
2022-08-18T11:08:18.715Z,60.70
2022-08-18T11:09:18.266Z,61.00
2022-08-18T11:11:33.039Z,61.50
2022-08-18T11:12:19.069Z,62.00
2022-08-18T11:13:18.360Z,61.50
2022-08-18T11:14:17.204Z,61.70
2022-08-18T11:15:22.576Z,61.60
2022-08-18T11:16:16.634Z,61.80
2022-08-18T11:17:18.975Z,61.30
2022-08-18T11:18:17.712Z,60.90
2022-08-18T11:19:18.066Z,60.80
2022-08-18T11:20:17.874Z,62.10
2022-08-18T11:21:17.299Z,62.60
2022-08-18T11:22:24.400Z,60.70
2022-08-18T11:23:17.653Z,60.50
2022-08-18T11:24:18.944Z,58.40
2022-08-18T11:25:19.482Z,58.80
2022-08-18T11:26:18.355Z,58.60
2022-08-18T11:27:18.301Z,57.80
2022-08-18T11:28:18.261Z,58.20
2022-08-18T11:29:18.699Z,57.90
2022-08-18T11:30:19.360Z,56.20
2022-08-18T11:31:19.711Z,58.20
2022-08-18T11:32:19.256Z,59.40
2022-08-18T11:33:22.980Z,59.70
2022-08-18T11:34:19.938Z,59.90
2022-08-18T11:35:19.321Z,59.80
2022-08-18T11:36:20.125Z,60.30
2022-08-18T11:37:19.366Z,59.20
2022-08-18T11:38:20.891Z,58.10
2022-08-18T11:39:17.988Z,58.60
2022-08-18T11:40:51.987Z,57.90
2022-08-18T11:41:18.222Z,56.90
2022-08-18T11:42:25.134Z,56.60
2022-08-18T11:43:21.256Z,56.50
2022-08-18T11:44:19.739Z,55.70
2022-08-18T11:45:17.395Z,55.20
2022-08-18T11:46:19.167Z,55.40
2022-08-18T11:47:19.687Z,55.20
2022-08-18T11:48:21.024Z,54.70
2022-08-18T11:50:20.089Z,55.90
2022-08-18T11:51:23.365Z,56.00
2022-08-18T11:52:16.747Z,56.90
2022-08-18T11:53:18.790Z,56.40
2022-08-18T11:54:18.566Z,57.60
2022-08-18T11:55:24.583Z,58.70
2022-08-18T11:56:18.590Z,60.10
2022-08-18T11:57:19.433Z,62.00
2022-08-18T11:58:18.278Z,61.70
2022-08-18T11:59:18.669Z,61.90
2022-08-18T12:00:23.753Z,61.70
2022-08-18T12:01:17.801Z,61.50
2022-08-18T12:02:17.800Z,61.40
2022-08-18T12:03:17.609Z,61.50
2022-08-18T12:04:19.219Z,61.10
2022-08-18T12:05:18.106Z,62.10
2022-08-18T12:07:20.497Z,62.80
2022-08-18T12:08:41.592Z,64.00
2022-08-18T12:09:24.383Z,63.80
2022-08-18T12:11:26.493Z,64.10
2022-08-18T12:12:18.325Z,64.90
2022-08-18T12:13:18.433Z,65.00
2022-08-18T12:14:32.184Z,63.80
2022-08-18T12:15:23.917Z,63.20
2022-08-18T12:16:19.543Z,62.70
2022-08-18T12:17:17.709Z,62.80
2022-08-18T12:19:16.505Z,64.10
2022-08-18T12:20:17.404Z,64.10
2022-08-18T12:21:19.091Z,63.60
2022-08-18T12:22:17.482Z,64.50
2022-08-18T12:23:18.348Z,64.70
2022-08-18T12:24:16.726Z,64.50
2022-08-18T12:25:16.848Z,63.00
2022-08-18T12:26:27.240Z,62.80
2022-08-18T12:27:22.130Z,63.20
2022-08-18T12:28:19.684Z,64.70
2022-08-18T12:29:16.053Z,63.90
2022-08-18T12:30:19.210Z,63.70
2022-08-18T12:31:19.555Z,65.20
2022-08-18T12:32:17.956Z,65.80
2022-08-18T12:33:18.234Z,65.50
2022-08-18T12:34:18.063Z,65.00
2022-08-18T12:35:21.793Z,65.20
2022-08-18T12:36:16.218Z,64.90
2022-08-18T12:37:57.490Z,65.00
2022-08-18T12:38:17.630Z,65.90
2022-08-18T12:39:18.956Z,65.70
2022-08-18T12:40:18.083Z,66.10
2022-08-18T12:41:19.914Z,67.00
2022-08-18T12:42:19.793Z,67.30
2022-08-18T12:43:18.118Z,66.30
2022-08-18T12:44:16.795Z,65.50
2022-08-18T12:45:19.683Z,65.80
2022-08-18T12:46:18.327Z,65.40
2022-08-18T12:47:18.993Z,65.70
2022-08-18T12:48:17.054Z,66.10
2022-08-18T12:49:15.689Z,65.90
2022-08-18T12:50:15.660Z,65.00
2022-08-18T12:51:15.807Z,64.50
2022-08-18T12:52:17.566Z,64.00
2022-08-18T12:53:14.317Z,63.80
2022-08-18T12:54:16.445Z,63.70
2022-08-18T12:55:22.079Z,63.20
2022-08-18T12:56:15.835Z,64.10
2022-08-18T12:57:33.274Z,64.00
2022-08-18T12:58:19.396Z,64.50
2022-08-18T12:59:18.487Z,64.90
2022-08-18T13:00:18.590Z,65.10